Time;durP1;ratioP1;P1;durP2;ratioP2;P2;SDS_P1;SDS_P2;PMS_P1;PMS_P2;Temp;Humidity;BMP_temperature;BMP_pressure;BME280_temperature;BME280_humidity;BME280_pressure;Samples;Min_cycle;Max_cycle;Signal;HPM_P1;HPM_P2
2022/12/30 00:00:12;;;;;;;26.30;17.27;;;;;;;6.96;100.00;95210.84;5092750;28;20303;-55
2022/12/30 00:02:37;;;;;;;26.30;16.53;;;;;;;7.09;100.00;95231.13;5092623;28;20240;-54
2022/12/30 00:05:03;;;;;;;28.53;16.23;;;;;;;7.11;100.00;95225.03;5092495;28;20711;-56
2022/12/30 00:07:29;;;;;;;25.20;16.03;;;;;;;7.24;100.00;95247.84;5092473;28;20207;-56
2022/12/30 00:09:54;;;;;;;25.73;16.03;;;;;;;7.30;100.00;95247.47;5092898;28;20231;-55
2022/12/30 00:34:25;;;;;;;30.10;16.77;;;;;;;7.57;100.00;95274.34;5092376;28;20712;-54
2022/12/30 00:36:51;;;;;;;30.13;17.53;;;;;;;7.71;100.00;95286.16;5091788;28;20233;-53
2022/12/30 00:39:16;;;;;;;31.77;17.07;;;;;;;7.75;100.00;95297.72;5092463;28;20216;-54
2022/12/30 00:44:26;;;;;;;27.07;16.20;;;;;;;7.52;100.00;95262.91;5091176;28;20272;-53
2022/12/30 00:46:52;;;;;;;28.50;16.83;;;;;;;7.53;100.00;95262.81;5090972;28;20176;-57
2022/12/30 00:57:30;;;;;;;26.87;16.47;;;;;;;7.64;100.00;95280.66;5092287;28;20624;-54
2022/12/30 00:59:55;;;;;;;26.53;16.83;;;;;;;7.50;100.00;95262.19;5092005;28;20662;-52
2022/12/30 01:02:21;;;;;;;26.63;16.97;;;;;;;7.37;100.00;95246.19;5091904;28;20195;-53
2022/12/30 01:04:47;;;;;;;29.33;16.10;;;;;;;7.49;100.00;95260.59;5092053;28;20299;-52
2022/12/30 01:07:12;;;;;;;27.73;15.53;;;;;;;7.62;100.00;95290.06;5091693;28;20196;-56
2022/12/30 01:09:38;;;;;;;22.50;14.63;;;;;;;7.46;100.00;95281.00;5091550;28;20285;-56
2022/12/30 01:12:07;;;;;;;25.20;14.87;;;;;;;7.41;100.00;95267.84;5091790;28;20214;-53
2022/12/30 01:14:45;;;;;;;25.90;14.83;;;;;;;7.21;100.00;95248.06;5073196;28;20809;-54
2022/12/30 01:17:14;;;;;;;22.03;13.53;;;;;;;7.23;100.00;95253.81;5091759;28;20579;-53
2022/12/30 01:19:39;;;;;;;24.93;15.30;;;;;;;7.19;100.00;95245.59;5091844;28;20204;-52
2022/12/30 01:22:06;;;;;;;24.67;15.80;;;;;;;7.24;100.00;95248.66;5091481;28;20245;-53
2022/12/30 01:24:32;;;;;;;23.87;15.87;;;;;;;7.22;100.00;95249.66;5091407;28;20541;-53
2022/12/30 01:26:57;;;;;;;25.13;15.57;;;;;;;6.98;100.00;95216.59;5091857;28;20191;-53
2022/12/30 01:29:28;;;;;;;22.47;12.87;;;;;;;6.89;100.00;95229.00;5091027;28;20224;-55
2022/12/30 01:32:04;;;;;;;21.90;13.73;;;;;;;6.72;100.00;95204.75;5091687;28;20199;-53
2022/12/30 01:37:14;;;;;;;17.30;11.20;;;;;;;6.86;100.00;95229.16;5091605;28;20268;-54
2022/12/30 01:39:40;;;;;;;22.17;12.93;;;;;;;6.86;100.00;95226.66;5091516;28;20653;-54
2022/12/30 01:42:18;;;;;;;18.70;11.63;;;;;;;6.92;100.00;95237.19;5091131;28;20184;-52
2022/12/30 01:44:52;;;;;;;22.57;12.30;;;;;;;6.67;100.00;95194.09;5091223;28;20231;-52
2022/12/30 01:47:30;;;;;;;20.17;12.37;;;;;;;6.87;100.00;95216.44;5089921;28;20661;-55
2022/12/30 01:50:03;;;;;;;18.23;11.00;;;;;;;6.76;100.00;95204.47;5091167;28;20673;-54
2022/12/30 01:52:29;;;;;;;19.17;11.60;;;;;;;6.98;100.00;95223.38;5072831;28;20191;-54
2022/12/30 01:55:02;;;;;;;18.63;11.63;;;;;;;6.74;100.00;95201.25;5091036;28;20681;-56
2022/12/30 01:57:27;;;;;;;22.57;12.47;;;;;;;6.95;100.00;95228.63;5091080;28;20558;-56
2022/12/30 01:59:54;;;;;;;20.33;11.30;;;;;;;6.78;100.00;95214.50;5091212;28;20217;-55
2022/12/30 02:02:20;;;;;;;19.47;10.73;;;;;;;6.94;100.00;95209.31;5090122;28;20245;-54
2022/12/30 02:04:45;;;;;;;21.90;12.10;;;;;;;7.00;100.00;95216.50;5090405;28;20604;-54
2022/12/30 02:07:22;;;;;;;23.00;11.53;;;;;;;6.82;100.00;95217.63;5090983;28;20188;-54
2022/12/30 02:09:50;;;;;;;19.13;11.60;;;;;;;6.67;100.00;95194.94;5091076;28;20222;-55
2022/12/30 02:12:15;;;;;;;20.07;11.70;;;;;;;6.68;100.00;95194.03;5090858;28;20191;-54
2022/12/30 02:14:44;;;;;;;20.60;11.93;;;;;;;6.51;100.00;95179.06;5090910;28;20681;-52
2022/12/30 02:17:38;;;;;;;20.20;11.70;;;;;;;6.65;100.00;95195.91;5090720;28;20249;-56
2022/12/30 02:20:55;;;;;;;17.63;11.30;;;;;;;6.59;100.00;95187.00;5090665;28;20220;-55
2022/12/30 02:23:54;;;;;;;19.50;12.17;;;;;;;6.61;100.00;95172.56;5090670;28;20196;-56
2022/12/30 02:26:46;;;;;;;20.20;12.17;;;;;;;6.68;100.00;95185.63;5090925;28;20611;-52
2022/12/30 02:29:45;;;;;;;22.40;13.27;;;;;;;6.89;100.00;95213.84;5090911;28;20242;-55
2022/12/30 02:32:44;;;;;;;23.07;12.00;;;;;;;6.86;100.00;95198.84;5090715;28;20168;-54
2022/12/30 02:35:26;;;;;;;18.97;11.93;;;;;;;6.80;100.00;95200.03;5090523;28;20234;-53
2022/12/30 02:37:57;;;;;;;21.63;12.20;;;;;;;6.76;100.00;95189.31;5090680;28;20184;-53
2022/12/30 02:46:15;;;;;;;20.37;11.57;;;;;;;6.97;100.00;95206.59;5090505;28;20707;-56
2022/12/30 02:48:45;;;;;;;20.47;12.20;;;;;;;7.24;100.00;95253.72;5090367;28;20212;-56
2022/12/30 02:53:55;;;;;;;23.87;14.27;;;;;;;6.99;100.00;95222.47;5089182;28;20707;-55
2022/12/30 02:56:21;;;;;;;22.37;13.70;;;;;;;6.80;100.00;95207.63;5088941;28;20180;-55
2022/12/30 03:03:56;;;;;;;24.43;14.73;;;;;;;6.60;100.00;95185.28;5089891;28;20193;-55
2022/12/30 03:05:24;;;;;;;23.23;14.20;;;;;;;6.56;100.00;95193.97;5093519;28;20218;-52
2022/12/30 03:08:06;;;;;;;25.47;15.13;;;;;;;6.55;100.00;95184.75;5093801;28;20215;-53
2022/12/30 03:14:00;;;;;;;21.77;13.23;;;;;;;6.46;100.00;95186.13;5093477;28;20203;-53
2022/12/30 03:16:32;;;;;;;23.07;13.23;;;;;;;6.41;100.00;95187.28;5050482;28;20665;-55
2022/12/30 03:19:02;;;;;;;26.33;14.70;;;;;;;6.49;100.00;95185.13;5093499;28;20180;-55
2022/12/30 03:21:30;;;;;;;23.20;13.67;;;;;;;6.54;100.00;95194.06;5093194;28;20662;-54
2022/12/30 03:27:04;;;;;;;22.60;13.10;;;;;;;6.59;100.00;95211.44;5093556;28;20573;-53
2022/12/30 03:29:46;;;;;;;24.67;14.00;;;;;;;6.57;100.00;95208.19;5093205;28;20223;-56
2022/12/30 03:32:14;;;;;;;25.27;14.93;;;;;;;6.62;100.00;95204.50;5093150;28;20177;-52
2022/12/30 03:34:40;;;;;;;23.47;14.30;;;;;;;6.52;100.00;95195.06;5075277;28;20295;-53
2022/12/30 03:37:18;;;;;;;25.30;15.07;;;;;;;6.48;100.00;95191.91;5093105;28;20215;-55
2022/12/30 03:40:02;;;;;;;24.17;14.90;;;;;;;6.39;100.00;95192.44;5093195;28;20681;-54
2022/12/30 03:42:29;;;;;;;25.00;16.23;;;;;;;6.46;100.00;95201.28;5092934;28;20192;-54
2022/12/30 03:44:54;;;;;;;26.37;15.27;;;;;;;6.34;100.00;95196.94;5092773;28;20227;-56
2022/12/30 03:47:20;;;;;;;25.73;14.67;;;;;;;6.35;100.00;95203.63;5092100;28;20611;-53
2022/12/30 03:49:45;;;;;;;22.53;14.20;;;;;;;6.36;100.00;95202.72;5091396;28;20315;-53
2022/12/30 03:52:15;;;;;;;26.73;15.83;;;;;;;6.32;100.00;95203.78;5091520;28;20524;-56
2022/12/30 03:54:42;;;;;;;27.83;15.77;;;;;;;6.26;100.00;95209.19;5092623;28;20219;-54
2022/12/30 03:57:08;;;;;;;24.00;15.17;;;;;;;6.34;100.00;95212.09;5092367;28;20187;-53
2022/12/30 03:59:34;;;;;;;25.37;15.10;;;;;;;6.33;100.00;95215.53;5092872;28;20234;-52
2022/12/30 04:02:00;;;;;;;27.47;16.00;;;;;;;6.33;100.00;95207.13;5073877;28;20180;-54
2022/12/30 04:04:25;;;;;;;24.03;16.03;;;;;;;6.38;100.00;95223.63;5092527;28;20607;-53
2022/12/30 04:06:51;;;;;;;28.03;16.80;;;;;;;6.41;100.00;95223.47;5074663;28;20187;-54
2022/12/30 04:09:16;;;;;;;25.07;15.53;;;;;;;6.42;100.00;95239.44;5074090;28;20208;-56
2022/12/30 04:11:41;;;;;;;26.37;14.40;;;;;;;6.45;100.00;95249.34;5091615;28;20180;-52
2022/12/30 04:14:07;;;;;;;22.77;15.53;;;;;;;6.41;100.00;95241.13;5092628;28;20184;-56
2022/12/30 04:16:33;;;;;;;28.67;15.60;;;;;;;6.26;100.00;95224.34;5092507;28;20180;-53
2022/12/30 04:18:58;;;;;;;29.13;14.80;;;;;;;6.17;100.00;95217.34;5092537;28;20214;-53
2022/12/30 04:21:24;;;;;;;26.53;15.53;;;;;;;6.25;100.00;95227.78;5092666;28;20191;-53
2022/12/30 04:23:49;;;;;;;29.67;16.30;;;;;;;6.31;100.00;95222.38;5092357;28;20223;-53
2022/12/30 04:26:15;;;;;;;27.70;15.97;;;;;;;6.36;100.00;95245.63;5092429;28;20726;-55
2022/12/30 04:28:40;;;;;;;33.00;16.17;;;;;;;6.40;100.00;95242.03;5092285;28;20212;-53
2022/12/30 04:31:05;;;;;;;37.17;16.47;;;;;;;6.47;100.00;95260.97;5092223;28;20212;-53
2022/12/30 04:33:31;;;;;;;27.67;16.63;;;;;;;6.36;100.00;95245.63;5092140;28;20650;-55
2022/12/30 04:35:57;;;;;;;27.33;16.27;;;;;;;6.44;100.00;95248.53;5092063;28;20697;-53
2022/12/30 04:38:22;;;;;;;28.17;16.93;;;;;;;6.39;100.00;95242.94;5092149;28;20265;-53
2022/12/30 04:40:48;;;;;;;29.83;15.67;;;;;;;6.45;100.00;95251.84;5091828;28;20646;-54
2022/12/30 04:43:13;;;;;;;28.97;16.80;;;;;;;6.40;100.00;95247.06;5092289;28;20192;-55
2022/12/30 04:45:39;;;;;;;27.50;16.40;;;;;;;6.39;100.00;95250.50;5091835;28;20318;-56
2022/12/30 04:48:04;;;;;;;29.10;15.57;;;;;;;6.34;100.00;95247.44;5092022;28;20286;-56
2022/12/30 04:50:29;;;;;;;28.97;15.50;;;;;;;6.35;100.00;95245.72;5091981;28;20644;-56
2022/12/30 04:52:55;;;;;;;28.40;15.83;;;;;;;6.25;100.00;95240.41;5092134;28;20188;-57
2022/12/30 04:55:20;;;;;;;27.43;15.83;;;;;;;6.06;100.00;95236.53;5091696;28;20277;-53
2022/12/30 04:57:46;;;;;;;28.73;15.70;;;;;;;6.11;100.00;95245.44;5091909;28;20223;-54
2022/12/30 05:00:12;;;;;;;25.70;14.93;;;;;;;6.08;100.00;95248.13;5092261;28;20208;-55
2022/12/30 05:02:37;;;;;;;26.83;15.67;;;;;;;6.07;100.00;95250.75;5073737;28;20190;-54
2022/12/30 05:05:03;;;;;;;24.77;15.13;;;;;;;6.16;100.00;95257.81;5091727;22;20229;-57
2022/12/30 05:07:29;;;;;;;24.87;15.13;;;;;;;6.08;100.00;95253.19;5071348;28;20611;-53
2022/12/30 05:09:54;;;;;;;28.17;15.03;;;;;;;6.17;100.00;95260.25;5070168;28;20244;-53
2022/12/30 05:12:20;;;;;;;23.37;14.80;;;;;;;6.25;100.00;95267.38;5071440;28;20188;-53
2022/12/30 05:14:45;;;;;;;27.20;15.20;;;;;;;6.31;100.00;95267.81;5071232;28;20284;-53
2022/12/30 05:17:11;;;;;;;29.20;15.70;;;;;;;6.30;100.00;95261.13;5071450;28;20177;-53
2022/12/30 05:19:36;;;;;;;24.50;14.50;;;;;;;6.24;100.00;95260.72;5071563;28;20213;-53
2022/12/30 05:22:01;;;;;;;25.73;15.73;;;;;;;6.19;100.00;95263.50;5071303;28;20646;-54
2022/12/30 05:27:11;;;;;;;24.07;14.47;;;;;;;6.19;100.00;95260.16;5071359;28;20250;-55
2022/12/30 05:29:36;;;;;;;28.17;15.27;;;;;;;6.25;100.00;95268.19;5071279;28;20216;-56
2022/12/30 05:32:01;;;;;;;25.37;14.63;;;;;;;6.27;100.00;95271.44;5071396;28;20195;-54
2022/12/30 05:34:27;;;;;;;25.13;16.50;;;;;;;6.20;100.00;95257.53;5070972;28;20246;-53
2022/12/30 05:36:52;;;;;;;25.17;15.43;;;;;;;6.38;100.00;95289.28;5071072;28;20227;-55
2022/12/30 05:39:17;;;;;;;28.83;14.70;;;;;;;6.33;100.00;95287.94;5071222;28;20658;-55
2022/12/30 05:41:43;;;;;;;21.40;12.90;;;;;;;6.39;100.00;95300.19;5071177;28;20268;-53
2022/12/30 05:44:08;;;;;;;18.37;12.20;;;;;;;6.17;100.00;95285.47;5071207;28;20184;-55
2022/12/30 05:46:33;;;;;;;21.90;12.90;;;;;;;6.15;100.00;95282.25;5071037;28;20338;-57
2022/12/30 05:48:59;;;;;;;18.67;11.80;;;;;;;6.23;100.00;95287.66;5070792;28;20205;-53
2022/12/30 05:51:24;;;;;;;22.23;11.57;;;;;;;6.93;100.00;95301.19;5070680;28;20254;-59
2022/12/30 05:53:50;;;;;;;21.40;11.50;;;;;;;7.67;100.00;95304.97;5071029;28;20716;-56
2022/12/30 05:56:15;;;;;;;21.10;12.93;;;;;;;8.18;100.00;95305.91;5071067;28;20212;-57
2022/12/30 05:58:41;;;;;;;21.33;12.30;;;;;;;7.77;100.00;95323.72;5070778;28;20588;-55
2022/12/30 06:01:07;;;;;;;18.80;11.20;;;;;;;7.45;100.00;95421.03;5070843;28;20193;-55
2022/12/30 06:03:33;;;;;;;17.07;12.00;;;;;;;7.45;100.00;95464.03;5069438;28;20195;-55
2022/12/30 06:06:01;;;;;;;17.40;10.97;;;;;;;7.28;100.00;95438.94;5070714;28;20259;-58
2022/12/30 06:08:27;;;;;;;20.67;12.60;;;;;;;6.98;100.00;95423.84;5070442;28;20689;-58
2022/12/30 06:10:53;;;;;;;22.63;13.00;;;;;;;6.82;100.00;95381.88;5070563;28;20355;-55
2022/12/30 06:13:18;;;;;;;20.07;12.63;;;;;;;6.63;100.00;95365.25;5070783;28;20662;-55
2022/12/30 06:15:44;;;;;;;27.50;15.57;;;;;;;6.65;100.00;95355.88;5070494;28;20236;-55
2022/12/30 06:18:09;;;;;;;27.73;15.93;;;;;;;6.46;100.00;95347.75;5070542;28;20185;-58
2022/12/30 06:20:35;;;;;;;34.43;19.60;;;;;;;5.71;100.00;95302.38;5070381;28;20219;-57
2022/12/30 06:23:01;;;;;;;40.17;23.83;;;;;;;5.75;100.00;95313.09;5070485;28;20191;-55
2022/12/30 06:25:27;;;;;;;30.40;17.80;;;;;;;6.12;100.00;95342.97;5070799;28;20292;-56
2022/12/30 06:27:52;;;;;;;36.40;21.60;;;;;;;6.14;100.00;95368.16;5070222;28;20212;-58
2022/12/30 06:30:18;;;;;;;40.23;23.53;;;;;;;5.93;100.00;95333.13;5070596;28;20304;-55
2022/12/30 06:32:43;;;;;;;33.33;19.03;;;;;;;6.39;100.00;95383.53;5068999;28;20288;-58
2022/12/30 06:35:10;;;;;;;32.93;18.50;;;;;;;6.60;100.00;95423.53;5072755;28;20668;-59
2022/12/30 06:37:35;;;;;;;31.30;17.73;;;;;;;6.50;100.00;95409.81;5072397;28;20185;-58
2022/12/30 06:40:01;;;;;;;32.53;16.73;;;;;;;6.36;100.00;95381.97;5072142;28;20204;-54
2022/12/30 06:42:26;;;;;;;34.93;18.03;;;;;;;6.48;100.00;95396.47;5072164;28;20188;-54
2022/12/30 06:44:51;;;;;;;36.33;19.03;;;;;;;6.40;100.00;95375.84;5071934;28;20216;-55
2022/12/30 06:47:17;;;;;;;30.77;19.03;;;;;;;6.33;100.00;95367.00;5073369;28;20234;-58
2022/12/30 06:49:42;;;;;;;35.03;19.90;;;;;;;6.41;100.00;95324.47;5073772;28;20698;-58
2022/12/30 06:52:07;;;;;;;36.30;21.70;;;;;;;7.12;100.00;95345.50;5073423;28;20185;-59
2022/12/30 06:54:33;;;;;;;39.90;20.50;;;;;;;7.06;100.00;95436.03;5073640;28;20690;-56
2022/12/30 06:56:58;;;;;;;33.23;19.83;;;;;;;7.02;100.00;95462.41;5073450;28;20269;-56
2022/12/30 06:59:24;;;;;;;34.13;18.63;;;;;;;6.93;100.00;95440.19;5073462;28;20576;-56
2022/12/30 07:01:49;;;;;;;31.70;17.93;;;;;;;6.94;100.00;95459.50;5073134;28;20177;-56
2022/12/30 07:04:14;;;;;;;30.40;16.73;;;;;;;6.72;100.00;95440.53;5071877;28;20272;-54
2022/12/30 07:06:40;;;;;;;28.13;15.97;;;;;;;6.75;100.00;95437.81;5073056;28;20643;-56
2022/12/30 07:09:05;;;;;;;25.90;14.93;;;;;;;6.65;100.00;95419.03;5073317;28;20608;-56
2022/12/30 07:11:30;;;;;;;27.37;15.37;;;;;;;6.55;100.00;95396.91;5073130;28;20272;-57
2022/12/30 07:13:56;;;;;;;33.43;15.63;;;;;;;6.65;100.00;95449.34;5072966;28;20199;-58
2022/12/30 07:16:21;;;;;;;35.73;15.20;;;;;;;6.59;100.00;95426.13;5073549;28;20341;-56
2022/12/30 07:18:46;;;;;;;31.60;14.20;;;;;;;6.54;100.00;95436.53;5073128;28;20553;-58
2022/12/30 07:21:12;;;;;;;21.83;12.27;;;;;;;6.49;100.00;95445.22;5073028;28;20201;-55
2022/12/30 07:23:37;;;;;;;23.30;12.70;;;;;;;6.33;100.00;95422.56;5072821;28;20181;-56
2022/12/30 07:26:03;;;;;;;21.17;13.03;;;;;;;6.23;100.00;95401.25;5072815;28;20348;-54
2022/12/30 07:28:28;;;;;;;24.30;14.33;;;;;;;6.22;100.00;95378.63;5072665;28;20227;-54
2022/12/30 07:30:54;;;;;;;22.20;13.63;;;;;;;6.36;100.00;95371.88;5071303;28;20205;-55
2022/12/30 07:33:19;;;;;;;24.03;14.97;;;;;;;6.40;100.00;95363.22;5072926;28;20200;-56
2022/12/30 07:35:44;;;;;;;28.87;14.47;;;;;;;6.65;100.00;95381.13;5071482;28;20212;-56
2022/12/30 07:38:10;;;;;;;29.17;15.20;;;;;;;6.79;100.00;95378.63;5072709;28;20287;-56
2022/12/30 07:40:36;;;;;;;23.73;15.13;;;;;;;7.03;100.00;95385.69;5072910;28;20295;-56
2022/12/30 07:43:03;;;;;;;26.93;16.73;;;;;;;7.15;100.00;95445.63;5072664;28;20650;-56
2022/12/30 07:45:28;;;;;;;30.80;17.27;;;;;;;7.33;100.00;95457.97;5071449;28;20266;-56
2022/12/30 07:47:53;;;;;;;32.47;18.87;;;;;;;7.43;100.00;95420.31;5072376;28;20291;-57
2022/12/30 07:50:19;;;;;;;31.70;17.80;;;;;;;7.64;100.00;95401.31;5072437;28;20584;-55
2022/12/30 07:52:44;;;;;;;31.63;17.50;;;;;;;7.86;100.00;95414.25;5072358;28;20315;-56
2022/12/30 07:55:10;;;;;;;30.60;18.73;;;;;;;8.06;100.00;95441.69;5072610;28;20220;-56
2022/12/30 07:57:35;;;;;;;30.37;18.47;;;;;;;8.26;100.00;95451.41;5072367;28;20192;-58
2022/12/30 08:00:01;;;;;;;25.90;17.17;;;;;;;8.37;100.00;95476.06;5072635;28;20678;-59
2022/12/30 08:02:26;;;;;;;27.50;17.20;;;;;;;8.45;100.00;95463.72;5071664;28;20638;-55
2022/12/30 08:04:52;;;;;;;31.20;19.13;;;;;;;8.61;100.00;95459.31;5071836;28;20594;-55
2022/12/30 08:07:18;;;;;;;28.40;17.20;;;;;;;8.62;100.00;95467.72;5071820;28;20187;-56
2022/12/30 08:09:44;;;;;;;26.87;17.53;;;;;;;8.94;100.00;95463.94;5071926;28;20228;-57
2022/12/30 08:12:16;;;;;;;32.73;19.30;;;;;;;9.15;100.00;95508.19;5070817;28;20219;-54
2022/12/30 08:14:41;;;;;;;30.53;19.17;;;;;;;9.35;100.00;95572.84;5071256;28;20282;-56
2022/12/30 08:17:07;;;;;;;35.57;19.20;;;;;;;9.51;100.00;95551.44;5070212;28;20185;-56
2022/12/30 08:19:33;;;;;;;32.43;19.10;;;;;;;9.82;100.00;95566.25;5071634;28;20208;-57
2022/12/30 08:21:58;;;;;;;31.87;18.83;;;;;;;9.92;100.00;95567.25;5071131;28;20704;-54
2022/12/30 08:24:24;;;;;;;31.17;19.40;;;;;;;10.18;100.00;95579.94;5071637;28;20216;-56
2022/12/30 08:26:50;;;;;;;32.23;19.37;;;;;;;10.45;100.00;95583.94;5071149;28;20234;-55
2022/12/30 08:29:15;;;;;;;28.23;18.43;;;;;;;10.71;100.00;95620.25;5071429;28;20700;-59
2022/12/30 08:31:42;;;;;;;34.97;20.27;;;;;;;10.81;100.00;95616.97;5071432;28;20180;-56
2022/12/30 08:34:08;;;;;;;36.37;20.90;;;;;;;10.74;100.00;95576.81;5071388;28;20563;-56
2022/12/30 08:36:33;;;;;;;34.57;22.10;;;;;;;10.97;100.00;95593.81;5070267;28;20173;-56
2022/12/30 08:39:01;;;;;;;43.60;24.87;;;;;;;11.03;100.00;95613.72;5069829;28;20253;-55
2022/12/30 08:41:32;;;;;;;41.60;24.30;;;;;;;11.25;100.00;95644.34;5071644;28;20250;-57
2022/12/30 08:43:58;;;;;;;38.60;23.83;;;;;;;11.26;100.00;95599.34;5071478;28;20193;-59
2022/12/30 08:46:26;;;;;;;38.13;25.17;;;;;;;11.51;100.00;95615.28;5071682;28;20177;-56
2022/12/30 08:48:51;;;;;;;42.50;25.43;;;;;;;11.73;100.00;95600.09;5071234;28;20225;-58
2022/12/30 08:51:17;;;;;;;46.90;26.17;;;;;;;11.91;100.00;95638.69;5070202;28;20184;-56
2022/12/30 08:53:43;;;;;;;43.37;24.17;;;;;;;12.11;100.00;95655.84;5070817;28;20231;-55
2022/12/30 08:56:14;;;;;;;42.17;24.93;;;;;;;12.33;100.00;95713.69;5071096;28;20204;-57
2022/12/30 08:58:40;;;;;;;44.40;25.30;;;;;;;12.01;100.00;95680.41;5071386;28;20301;-58
2022/12/30 09:01:15;;;;;;;42.30;25.50;;;;;;;12.07;100.00;95654.47;5071320;28;20213;-59
2022/12/30 09:03:42;;;;;;;41.63;25.53;;;;;;;12.28;100.00;95748.94;5071160;28;20185;-58
2022/12/30 09:06:10;;;;;;;42.03;25.73;;;;;;;12.11;100.00;95672.88;5070878;28;20291;-59
2022/12/30 09:08:36;;;;;;;47.90;28.67;;;;;;;12.17;100.00;95603.59;5070722;28;20581;-59
2022/12/30 09:11:05;;;;;;;48.40;28.77;;;;;;;12.30;100.00;95617.84;5070633;28;20678;-56
2022/12/30 09:13:38;;;;;;;41.67;26.23;;;;;;;12.23;100.00;95606.50;5071012;28;20176;-56
2022/12/30 09:16:06;;;;;;;41.60;26.77;;;;;;;12.43;100.00;95612.63;5071144;28;20205;-58
2022/12/30 09:18:31;;;;;;;44.63;27.90;;;;;;;12.50;100.00;95652.03;5071245;28;20699;-59
2022/12/30 09:20:57;;;;;;;43.10;27.70;;;;;;;12.68;100.00;95635.31;5071089;28;20220;-55
2022/12/30 09:23:22;;;;;;;39.70;26.13;;;;;;;12.72;100.00;95699.69;5071100;28;20176;-59
2022/12/30 09:25:47;;;;;;;39.07;26.20;;;;;;;12.76;100.00;95673.81;5071353;28;20208;-55
2022/12/30 09:28:13;;;;;;;48.40;28.10;;;;;;;12.75;100.00;95643.28;5071194;28;20208;-58
2022/12/30 09:30:38;;;;;;;41.43;25.97;;;;;;;12.78;100.00;95668.59;5071666;28;20306;-59
2022/12/30 09:33:04;;;;;;;40.60;26.60;;;;;;;12.44;100.00;95644.84;5071359;28;20189;-59
2022/12/30 09:35:30;;;;;;;40.17;25.57;;;;;;;12.59;100.00;95626.63;5071422;28;20292;-55
2022/12/30 09:37:55;;;;;;;42.00;26.63;;;;;;;12.70;100.00;95689.59;5070959;28;20267;-57
2022/12/30 09:40:48;;;;;;;35.47;23.03;;;;;;;12.56;100.00;95618.41;5071093;28;20227;-58
2022/12/30 09:44:10;;;;;;;37.53;23.90;;;;;;;13.11;100.00;95720.41;5060489;28;20208;-60
2022/12/30 09:46:45;;;;;;;33.77;23.07;;;;;;;13.30;100.00;95661.06;5009335;28;20302;-58
2022/12/30 09:49:28;;;;;;;36.53;23.87;;;;;;;13.34;100.00;95658.16;5063051;28;20240;-60
2022/12/30 09:52:01;;;;;;;35.23;23.03;;;;;;;13.27;100.00;95674.88;5071168;28;20192;-57
2022/12/30 09:54:29;;;;;;;29.60;21.10;;;;;;;13.49;100.00;95610.94;5071246;28;20220;-58
2022/12/30 09:57:30;;;;;;;25.80;18.80;;;;;;;13.15;100.00;95705.69;5070862;28;20287;-54
2022/12/30 09:59:54;;;;;;;30.13;19.70;;;;;;;13.02;100.00;95600.31;5070977;28;20678;-59
2022/12/30 10:02:24;;;;;;;23.67;17.70;;;;;;;13.03;100.00;95578.97;5070872;28;20188;-59
2022/12/30 10:04:50;;;;;;;28.30;18.77;;;;;;;12.80;100.00;95649.69;5070580;28;20234;-59
2022/12/30 10:07:30;;;;;;;28.63;18.25;;;;;;;12.72;100.00;95657.13;5070819;28;20177;-59
2022/12/30 10:10:20;;;;;;;27.03;17.90;;;;;;;13.26;100.00;95609.44;5073285;28;20526;-59
2022/12/30 10:13:03;;;;;;;28.20;18.20;;;;;;;12.01;100.00;95634.53;5073996;28;20200;-59
2022/12/30 10:15:29;;;;;;;29.40;19.47;;;;;;;12.51;100.00;95567.75;5074664;28;20212;-55
2022/12/30 10:18:06;;;;;;;27.73;18.87;;;;;;;13.04;100.00;95624.84;5074239;28;20735;-59
2022/12/30 10:20:38;;;;;;;27.33;18.53;;;;;;;12.79;99.60;95678.66;5074548;28;20726;-55
2022/12/30 10:23:12;;;;;;;27.37;18.70;;;;;;;12.79;100.00;95583.44;5074146;28;20195;-60
2022/12/30 10:25:42;;;;;;;27.20;18.97;;;;;;;13.57;100.00;95647.84;5074116;28;20786;-55
2022/12/30 10:28:12;;;;;;;33.47;19.83;;;;;;;13.90;99.99;95671.47;5072599;28;20713;-55
2022/12/30 10:30:42;;;;;;;32.83;18.85;;;;;;;13.93;97.07;95713.88;5073960;28;20209;-58
2022/12/30 10:33:18;;;;;;;27.73;19.13;;;;;;;13.89;99.64;95653.72;5073945;28;20185;-56
2022/12/30 10:35:46;;;;;;;31.00;19.35;;;;;;;14.40;98.87;95666.53;5074128;28;20212;-55
2022/12/30 10:38:15;;;;;;;30.50;19.52;;;;;;;14.74;97.58;95691.72;5073815;28;20196;-59
2022/12/30 10:40:55;;;;;;;29.23;19.25;;;;;;;15.07;96.84;95693.16;5073785;28;20220;-59
2022/12/30 10:43:37;;;;;;;28.67;18.05;;;;;;;15.31;95.99;95706.41;5073532;28;20189;-59
2022/12/30 10:46:16;;;;;;;30.42;18.77;;;;;;;15.54;79.81;95714.69;5073704;28;20204;-58
2022/12/30 10:48:53;;;;;;;28.00;19.02;;;;;;;15.66;76.29;95767.47;5073618;28;20248;-59
2022/12/30 10:51:19;;;;;;;28.88;19.33;;;;;;;15.30;69.29;95825.22;5073580;28;20204;-57
2022/12/30 10:53:47;;;;;;;27.75;18.48;;;;;;;15.61;69.98;95772.19;5073364;28;20609;-57
2022/12/30 10:56:34;;;;;;;26.48;18.33;;;;;;;15.59;71.75;95720.25;5073528;28;20200;-58
2022/12/30 10:59:06;;;;;;;30.10;19.85;;;;;;;15.76;72.41;95686.22;5073605;28;20188;-57
2022/12/30 11:01:34;;;;;;;34.13;20.83;;;;;;;15.83;68.91;95725.78;5073488;28;20184;-58
2022/12/30 11:04:00;;;;;;;28.15;20.65;;;;;;;15.60;67.00;95775.69;5073750;28;20193;-57
2022/12/30 11:06:27;;;;;;;33.88;20.60;;;;;;;15.62;69.61;95704.59;5073438;28;20180;-57
2022/12/30 11:09:13;;;;;;;30.13;20.98;;;;;;;15.72;68.85;95705.38;5073205;28;20269;-58
2022/12/30 11:15:01;;;;;;;28.83;20.48;;;;;;;16.41;67.25;95735.03;5073448;28;20278;-58
2022/12/30 11:17:28;;;;;;;29.13;20.05;;;;;;;16.33;66.58;95734.91;5071941;28;20184;-57
2022/12/30 11:19:59;;;;;;;30.20;20.63;;;;;;;16.28;67.23;95719.09;5073177;28;20228;-57
2022/12/30 11:22:25;;;;;;;32.53;20.63;;;;;;;16.19;64.92;95788.41;5073127;28;20208;-57
2022/12/30 11:25:16;;;;;;;35.63;20.90;;;;;;;16.21;66.77;95723.19;5073280;28;20220;-58
2022/12/30 11:27:47;;;;;;;33.95;20.58;;;;;;;16.21;66.52;95712.91;5063755;28;20266;-58
2022/12/30 11:30:28;;;;;;;27.95;19.58;;;;;;;16.35;65.99;95730.44;5073124;28;20223;-58
2022/12/30 11:32:56;;;;;;;31.00;18.83;;;;;;;16.27;66.25;95708.97;5073039;28;20243;-57
2022/12/30 11:35:51;;;;;;;26.75;19.33;;;;;;;16.12;65.97;95713.72;5073005;28;20263;-59
2022/12/30 11:38:26;;;;;;;26.10;18.38;;;;;;;16.28;66.01;95715.75;5055445;28;20674;-58
2022/12/30 11:40:51;;;;;;;31.35;19.85;;;;;;;16.24;66.52;95699.78;5072835;28;20321;-57
2022/12/30 11:43:18;;;;;;;30.92;19.42;;;;;;;16.06;65.36;95729.66;5072950;28;20637;-57
2022/12/30 11:45:47;;;;;;;36.40;19.83;;;;;;;16.21;65.52;95723.19;5072617;28;20698;-56
2022/12/30 11:48:42;;;;;;;31.33;20.35;;;;;;;16.26;65.90;95710.72;5072588;28;20883;-57
2022/12/30 11:51:20;;;;;;;34.70;19.15;;;;;;;16.26;61.05;95825.44;5041593;28;20236;-58
2022/12/30 11:53:47;;;;;;;28.75;19.55;;;;;;;15.80;64.05;95728.59;5072687;28;20189;-58
2022/12/30 11:56:20;;;;;;;29.27;18.80;;;;;;;15.96;65.09;95690.41;5072726;28;20634;-57
2022/12/30 11:58:46;;;;;;;28.45;19.90;;;;;;;16.16;66.12;95678.38;5072641;28;20185;-56
2022/12/30 12:01:12;;;;;;;27.30;18.95;;;;;;;16.22;62.50;95770.97;5072439;28;20215;-57
2022/12/30 12:03:50;;;;;;;31.40;20.42;;;;;;;16.05;64.24;95717.00;5072397;28;20185;-58
2022/12/30 12:06:15;;;;;;;31.40;20.70;;;;;;;15.61;65.33;95682.47;5072369;28;20213;-55
2022/12/30 12:08:50;;;;;;;30.15;19.80;;;;;;;15.70;67.60;95625.25;5072225;28;20304;-56
2022/12/30 12:11:21;;;;;;;28.45;20.50;;;;;;;15.76;65.65;95683.66;5072115;28;20761;-59
2022/12/30 12:14:20;;;;;;;31.38;20.65;;;;;;;15.54;66.80;95650.63;5072050;28;20226;-55
2022/12/30 12:17:02;;;;;;;29.88;19.58;;;;;;;15.75;67.25;95629.03;5071079;28;20714;-60
2022/12/30 12:19:30;;;;;;;33.00;19.25;;;;;;;15.95;64.12;95712.69;5071940;28;20299;-55
2022/12/30 12:22:01;;;;;;;29.58;20.48;;;;;;;15.81;64.48;95702.03;5071572;28;20189;-55
2022/12/30 12:24:32;;;;;;;33.85;20.40;;;;;;;15.82;62.95;95735.22;5071325;28;20219;-57
2022/12/30 12:27:08;;;;;;;38.35;23.95;;;;;;;14.74;66.72;95632.84;5070339;28;20197;-57